Strona główna
METAR-TAF:

METAR-TAF

Lotnisko :

Port lotniczy Ochryda

Ochryda, Macedonia

Szerokość geograficzna: 41-07N, Długość geograficzna: 020-48E, wysokość: 760 m

Aktualna obserwacja pogody

Raport powstał 6 godziny i 4 minut temu, godzina 20:00 UTC
Wiatr 5 kt od zachód
Temperatura 0°C
Wilgotność 64%
Ciśnienie 1029 hPa
Widzialność 10 km lub więcej
Brak chmur poniżej 1500 m i brak chmur cumulonimbus

METAR: LWOH 222000Z 28005KT CAVOK M00/M06 Q1029

czas: 03:04 (02:04 UTC)

Prognoza

Raport powstał 2 godziny i 34 minut temu, godzina 23:30 UTC
Prognoza ważna od 23 godzina 00 UTC do 23 godzina 24 UTC
Wiatr 5 kt od północno-północny zachód
Widzialność 10 km lub więcej
Brak chmur poniżej 1500 m i brak chmur cumulonimbus

TAF: LWOH 222330Z 2300/2324 33005KT CAVOK

Obserwacja i prognoza pogody dla ponad 4000 lotnisk (raport METAR i TAF).

Dostępne stacje oznaczono żółtymi i czerwonymi punktami na mapie.

Najedź kursorem aby zobaczyć nazwę stacji.

Kliknij aby zobaczyć obserwacje i prognozy pogody.

Aby zmienić mapę: kliknij na zielony przycisk z czarnym krzyżykiem, aby powiększyć; na zielony przycisk z myślnikiem, aby pomniejszyć; na zielone strzałki, aby przejść do map sąsiednich.


METAR-TAF: